Mc Cook Ben Nelson Regional Airport
KMCK : now visible

Airfield :











YOU CAN JOIN US ON...

 
LOGIN :

Register | Disclaimer

   EN    FR    IT 

 









Legend :    VFR   Marginal VFR   IFR   Intensive IFR   Very Intensive IFR
Visi :
Ceiling :
>= 8 km
>= 3000ft
5 to 8 km
1000 to 3000 ft
1500m to 5 km
500 to 1000 ft
800 to 1500m
200 to 500 ft
< 800m
< 200 ft
Symbols :   Thunderstorms  Fog  Heavy snow  Heavy precipitations  Wind > 20 kt






- Airport Elevation : 2583 ft


KMCK - Mc Cook Ben Nelson Regional

CURRENT METAR :
  • 041553Z AUTO 26003KT 7SM CLR 26/16 A3005 RMK AO2 SLP150 T02610156

EXPIRED METARs :
  • 041453Z AUTO 28006KT 7SM CLR 25/16 A3005 RMK AO2 SLP149 T02500156 51008
  • 041353Z AUTO 25005KT 7SM CLR 22/14 A3004 RMK AO2 SLP147 T02220139

TAF KMCK
Valid from the 04 at 12:00 until the 05 at 12:00 UTC


041129Z 0412/0512 23009KT P6SM SCT250
FM042100 27011KT P6SM VCTS BKN100CB
FM050200 27006KT P6SM OVC100
KZDV FIR / North America



MET'MAP, your aeronautical weather chart ! - Copyright ORBIFLY December 2007 - Disclaimer

ORBIFLY MET'MAP TEAM :

Programming & Development : Alexandra Zaïnal
Concept & original design : Baudouin d'Aumeries
Assistance for programming : Marc-Olivier Méhu
Technical & hardware support : Manuel Goepfert

Contact : metmap@orbifly.com




SOURCES & CREDITS :

   NOAA       Earth
Advisory